Time;durP1;ratioP1;P1;durP2;ratioP2;P2;SDS_P1;SDS_P2;PMS_P1;PMS_P2;Temp;Humidity;BMP_temperature;BMP_pressure;BME280_temperature;BME280_humidity;BME280_pressure;Samples;Min_cycle;Max_cycle;Signal;HPM_P1;HPM_P2
2021/12/27 00:00:44;;;;;;;28.75;10.95;;;;;;;;;;9986853;29;20959;-56
2021/12/27 00:05:42;;;;;;;33.60;11.43;;;;;;;;;;9989758;29;20091;-57
2021/12/27 00:10:40;;;;;;;15.07;10.52;;;;;;;;;;9991395;29;20076;-58
2021/12/27 00:15:42;;;;;;;26.40;11.20;;;;;;;;;;9993457;29;20086;-57
2021/12/27 00:20:40;;;;;;;44.13;12.60;;;;;;;;;;9984456;29;20087;-57
2021/12/27 00:25:38;;;;;;;77.05;13.48;;;;;;;;;;9997090;29;20115;-53
2021/12/27 00:30:38;;;;;;;27.88;10.52;;;;;;;;;;10007390;29;20088;-57
2021/12/27 00:35:39;;;;;;;37.75;10.82;;;;;;;;;;10010851;29;20076;-56
2021/12/27 00:40:38;;;;;;;39.75;10.48;;;;;;;;;;9988917;29;20071;-58
2021/12/27 00:45:36;;;;;;;28.75;9.43;;;;;;;;;;9986612;29;20072;-58
2021/12/27 00:50:35;;;;;;;50.83;10.73;;;;;;;;;;9984899;29;20072;-57
2021/12/27 00:55:34;;;;;;;56.58;13.50;;;;;;;;;;9985575;29;20094;-58
2021/12/27 01:00:33;;;;;;;39.17;11.68;;;;;;;;;;9983616;29;20111;-58
2021/12/27 01:05:32;;;;;;;35.10;12.77;;;;;;;;;;9982319;29;20083;-58
2021/12/27 01:10:54;;;;;;;24.05;9.43;;;;;;;;;;9990583;29;20489;-58
2021/12/27 01:16:10;;;;;;;25.55;11.23;;;;;;;;;;10002434;29;20091;-58
2021/12/27 01:21:09;;;;;;;34.30;10.30;;;;;;;;;;9984091;29;20067;-58
2021/12/27 01:26:07;;;;;;;61.25;11.55;;;;;;;;;;9994298;29;20474;-58
2021/12/27 01:31:07;;;;;;;49.53;12.20;;;;;;;;;;9984678;29;20076;-55
2021/12/27 01:36:06;;;;;;;30.02;11.70;;;;;;;;;;9989557;29;20080;-59
2021/12/27 01:41:05;;;;;;;36.25;11.23;;;;;;;;;;9985420;29;20468;-58
2021/12/27 01:46:04;;;;;;;100.82;13.20;;;;;;;;;;9994375;29;20094;-58
2021/12/27 01:51:05;;;;;;;33.70;12.43;;;;;;;;;;9985573;29;20072;-57
2021/12/27 01:56:04;;;;;;;62.38;12.02;;;;;;;;;;9995454;29;20088;-58
2021/12/27 02:01:04;;;;;;;48.00;11.27;;;;;;;;;;9984647;29;20147;-58
2021/12/27 02:06:05;;;;;;;39.28;10.70;;;;;;;;;;9988086;29;20094;-58
2021/12/27 02:11:04;;;;;;;47.13;13.40;;;;;;;;;;9982523;29;20474;-58
2021/12/27 02:16:02;;;;;;;112.80;16.38;;;;;;;;;;9991089;29;20082;-58
2021/12/27 02:21:02;;;;;;;68.38;13.48;;;;;;;;;;9990064;29;20076;-57
2021/12/27 02:26:00;;;;;;;102.68;17.15;;;;;;;;;;9991580;29;20098;-59
2021/12/27 02:30:58;;;;;;;46.30;12.70;;;;;;;;;;9992918;29;20087;-59
2021/12/27 02:35:59;;;;;;;75.20;14.80;;;;;;;;;;9998644;29;20477;-57
2021/12/27 02:41:00;;;;;;;127.15;15.02;;;;;;;;;;10010539;29;20074;-58
2021/12/27 02:45:59;;;;;;;107.40;14.32;;;;;;;;;;10002707;29;20087;-58
2021/12/27 02:50:58;;;;;;;156.88;16.70;;;;;;;;;;10002549;29;20075;-58
2021/12/27 02:55:57;;;;;;;61.78;10.13;;;;;;;;;;9991700;29;20482;-57
2021/12/27 03:00:58;;;;;;;115.20;14.55;;;;;;;;;;9990970;29;20084;-59
2021/12/27 03:05:56;;;;;;;43.85;9.13;;;;;;;;;;9988918;29;20087;-55
2021/12/27 03:10:57;;;;;;;83.93;12.35;;;;;;;;;;9992917;29;20084;-58
2021/12/27 03:15:56;;;;;;;46.83;8.73;;;;;;;;;;10001233;29;20479;-57
2021/12/27 03:20:56;;;;;;;49.35;9.73;;;;;;;;;;10001490;29;20080;-58
2021/12/27 03:25:54;;;;;;;21.88;9.10;;;;;;;;;;9991791;29;20087;-58
2021/12/27 03:30:53;;;;;;;17.35;9.30;;;;;;;;;;9991356;29;20560;-58
2021/12/27 03:36:00;;;;;;;17.67;8.18;;;;;;;;;;10001748;29;20083;-58
2021/12/27 03:41:00;;;;;;;14.00;7.28;;;;;;;;;;10000532;29;20075;-59
2021/12/27 03:45:59;;;;;;;24.80;7.90;;;;;;;;;;10005188;29;20082;-58
2021/12/27 03:50:57;;;;;;;19.00;7.05;;;;;;;;;;10003721;29;20474;-57
2021/12/27 03:55:55;;;;;;;20.98;7.60;;;;;;;;;;9997358;29;20083;-58
2021/12/27 04:01:10;;;;;;;27.40;6.90;;;;;;;;;;9987950;29;20576;-57
2021/12/27 04:06:08;;;;;;;28.80;7.63;;;;;;;;;;9987244;29;20082;-58
2021/12/27 04:11:07;;;;;;;14.55;6.85;;;;;;;;;;9986643;29;20071;-56
2021/12/27 04:16:07;;;;;;;23.30;7.53;;;;;;;;;;9991474;29;20080;-58
2021/12/27 04:21:05;;;;;;;12.90;7.13;;;;;;;;;;9994529;29;20103;-57
2021/12/27 04:26:04;;;;;;;13.52;7.90;;;;;;;;;;9997448;29;20106;-58
2021/12/27 04:31:02;;;;;;;29.10;7.53;;;;;;;;;;9986616;29;20080;-59
2021/12/27 04:36:02;;;;;;;13.80;6.07;;;;;;;;;;10003872;29;20087;-58
2021/12/27 04:41:00;;;;;;;20.50;6.32;;;;;;;;;;9974164;29;20071;-58
2021/12/27 04:45:58;;;;;;;16.58;9.07;;;;;;;;;;9988924;29;20084;-58
2021/12/27 04:50:57;;;;;;;13.02;7.40;;;;;;;;;;9993747;29;20083;-55
2021/12/27 04:55:57;;;;;;;12.77;6.43;;;;;;;;;;10009167;29;20106;-57
2021/12/27 05:00:55;;;;;;;33.10;7.40;;;;;;;;;;9981758;29;20483;-57
2021/12/27 05:05:54;;;;;;;15.38;7.95;;;;;;;;;;9985647;29;20091;-59
2021/12/27 05:10:52;;;;;;;16.67;6.55;;;;;;;;;;9983926;29;20082;-59
2021/12/27 05:15:51;;;;;;;10.90;7.00;;;;;;;;;;9987125;29;20068;-58
2021/12/27 05:20:50;;;;;;;8.77;6.07;;;;;;;;;;9980042;29;20484;-57
2021/12/27 05:25:48;;;;;;;10.43;6.35;;;;;;;;;;9978269;29;20473;-57
2021/12/27 05:30:48;;;;;;;15.43;7.97;;;;;;;;;;9987433;29;20581;-58
2021/12/27 05:35:48;;;;;;;17.13;8.65;;;;;;;;;;9983260;29;20068;-57
2021/12/27 05:40:46;;;;;;;17.38;8.00;;;;;;;;;;9987566;29;20116;-58
2021/12/27 05:45:44;;;;;;;7.57;6.72;;;;;;;;;;9982845;29;20126;-57
2021/12/27 05:50:43;;;;;;;14.75;8.13;;;;;;;;;;9985111;29;20532;-58
2021/12/27 05:55:43;;;;;;;19.63;8.82;;;;;;;;;;9988334;29;20091;-58
2021/12/27 06:00:42;;;;;;;15.35;7.43;;;;;;;;;;9980897;29;20088;-58
2021/12/27 06:05:41;;;;;;;43.35;10.52;;;;;;;;;;9984452;29;20088;-56
2021/12/27 06:10:39;;;;;;;11.30;7.25;;;;;;;;;;9969103;29;20076;-58
2021/12/27 06:15:39;;;;;;;11.63;5.95;;;;;;;;;;9971798;29;20079;-58
2021/12/27 06:20:37;;;;;;;19.15;7.93;;;;;;;;;;9986382;29;20082;-58
2021/12/27 06:25:35;;;;;;;8.88;8.05;;;;;;;;;;9989755;29;20083;-57
2021/12/27 06:30:34;;;;;;;12.82;10.35;;;;;;;;;;9988273;29;20088;-57
2021/12/27 06:35:33;;;;;;;14.48;8.55;;;;;;;;;;9984252;29;20075;-58
2021/12/27 06:40:32;;;;;;;13.70;10.20;;;;;;;;;;9991117;29;20078;-58
2021/12/27 06:45:30;;;;;;;12.93;9.85;;;;;;;;;;9994237;29;20090;-57
2021/12/27 06:50:28;;;;;;;17.48;11.20;;;;;;;;;;9991643;29;20517;-58
2021/12/27 06:55:28;;;;;;;21.33;14.70;;;;;;;;;;9996787;29;20499;-58
2021/12/27 07:00:27;;;;;;;16.85;10.63;;;;;;;;;;9981296;29;20060;-56
2021/12/27 07:05:25;;;;;;;16.75;12.20;;;;;;;;;;9987029;29;20082;-54
2021/12/27 07:10:23;;;;;;;20.90;12.30;;;;;;;;;;9987876;29;20068;-57
2021/12/27 07:15:23;;;;;;;23.17;14.32;;;;;;;;;;9987188;29;20075;-59
2021/12/27 07:20:21;;;;;;;18.30;12.00;;;;;;;;;;9980726;29;20076;-57
2021/12/27 07:25:20;;;;;;;39.85;13.07;;;;;;;;;;9983439;29;20127;-54
2021/12/27 07:30:18;;;;;;;31.02;13.88;;;;;;;;;;10000441;29;20099;-58
2021/12/27 07:35:18;;;;;;;25.98;12.63;;;;;;;;;;9985606;29;20079;-58
2021/12/27 07:40:17;;;;;;;17.45;12.13;;;;;;;;;;10002769;29;20083;-59
2021/12/27 07:45:15;;;;;;;32.67;15.43;;;;;;;;;;10008457;29;20079;-58
2021/12/27 07:50:14;;;;;;;27.80;15.15;;;;;;;;;;10020106;29;20146;-58
2021/12/27 07:55:13;;;;;;;18.50;12.32;;;;;;;;;;9999341;29;20076;-59
2021/12/27 08:00:12;;;;;;;20.67;12.35;;;;;;;;;;9979915;29;20064;-58
2021/12/27 08:05:10;;;;;;;48.13;14.88;;;;;;;;;;9980843;29;20094;-59
2021/12/27 08:10:10;;;;;;;29.17;17.48;;;;;;;;;;9980820;29;20078;-57
2021/12/27 08:15:11;;;;;;;26.25;15.98;;;;;;;;;;9986910;29;20080;-58
2021/12/27 08:20:10;;;;;;;33.95;20.25;;;;;;;;;;9987858;29;20087;-58
2021/12/27 08:25:08;;;;;;;23.77;19.02;;;;;;;;;;9988059;29;20090;-57
2021/12/27 08:30:07;;;;;;;24.45;14.55;;;;;;;;;;9987748;29;20083;-58
2021/12/27 08:35:08;;;;;;;21.35;13.05;;;;;;;;;;9987570;29;20068;-58
2021/12/27 08:40:07;;;;;;;29.30;21.55;;;;;;;;;;9989056;29;20127;-58
2021/12/27 08:45:05;;;;;;;20.80;14.75;;;;;;;;;;9986035;29;20087;-58
2021/12/27 08:50:05;;;;;;;38.85;25.45;;;;;;;;;;10007361;29;20083;-59
2021/12/27 08:55:04;;;;;;;25.25;16.52;;;;;;;;;;10012321;29;20078;-58
2021/12/27 09:00:04;;;;;;;17.15;11.77;;;;;;;;;;10026031;29;20095;-59
2021/12/27 09:05:03;;;;;;;20.88;14.65;;;;;;;;;;10003348;29;20069;-58
2021/12/27 09:10:02;;;;;;;24.13;16.10;;;;;;;;;;10005859;29;20067;-59
2021/12/27 09:15:02;;;;;;;31.77;22.45;;;;;;;;;;10010607;29;20060;-59
2021/12/27 09:20:00;;;;;;;26.65;16.67;;;;;;;;;;10026437;29;20064;-58
2021/12/27 09:24:58;;;;;;;21.67;12.45;;;;;;;;;;9990701;29;20481;-59
2021/12/27 09:29:57;;;;;;;22.75;16.27;;;;;;;;;;10004052;29;20208;-58
2021/12/27 09:34:56;;;;;;;27.73;18.08;;;;;;;;;;10008481;29;20072;-58
2021/12/27 09:39:55;;;;;;;52.58;26.75;;;;;;;;;;10025540;29;20063;-58
2021/12/27 09:44:54;;;;;;;44.25;15.27;;;;;;;;;;10021535;29;20083;-58
2021/12/27 09:49:52;;;;;;;23.92;17.70;;;;;;;;;;10014134;29;20271;-55
2021/12/27 09:54:58;;;;;;;45.50;33.40;;;;;;;;;;10013260;29;20067;-59
2021/12/27 09:59:56;;;;;;;46.20;25.38;;;;;;;;;;9990123;29;20068;-58
2021/12/27 10:04:55;;;;;;;70.80;38.08;;;;;;;;;;9994767;29;20541;-56
2021/12/27 10:09:54;;;;;;;63.88;33.75;;;;;;;;;;9986220;29;20067;-58
2021/12/27 10:14:58;;;;;;;79.82;46.28;;;;;;;;;;9998417;29;20075;-57
2021/12/27 10:19:56;;;;;;;93.88;60.53;;;;;;;;;;10009872;29;20079;-58
2021/12/27 10:24:56;;;;;;;61.50;30.02;;;;;;;;;;10026433;29;20078;-56
2021/12/27 10:29:55;;;;;;;60.15;29.88;;;;;;;;;;9981518;29;20087;-58
2021/12/27 10:34:55;;;;;;;66.63;36.45;;;;;;;;;;9996929;29;20126;-57
2021/12/27 10:40:13;;;;;;;61.90;28.13;;;;;;;;;;9993437;29;20088;-57
2021/12/27 10:45:13;;;;;;;39.50;19.75;;;;;;;;;;10016940;29;20514;-58
2021/12/27 10:50:15;;;;;;;39.35;26.48;;;;;;;;;;9990698;29;20068;-58
2021/12/27 10:55:15;;;;;;;43.03;22.40;;;;;;;;;;10002438;29;20079;-57
2021/12/27 11:00:22;;;;;;;70.38;41.70;;;;;;;;;;9999037;29;20076;-58
2021/12/27 11:05:23;;;;;;;57.88;36.33;;;;;;;;;;10008984;29;20086;-58
2021/12/27 11:10:22;;;;;;;53.72;25.27;;;;;;;;;;9988386;29;20075;-58
2021/12/27 11:15:20;;;;;;;59.83;31.23;;;;;;;;;;9988516;29;20338;-58
2021/12/27 11:20:18;;;;;;;121.05;38.58;;;;;;;;;;10009528;29;20075;-58
2021/12/27 11:25:23;;;;;;;62.63;42.83;;;;;;;;;;10016743;29;20071;-56
2021/12/27 11:30:23;;;;;;;71.53;31.85;;;;;;;;;;10026557;29;20096;-58
2021/12/27 11:35:21;;;;;;;88.15;48.83;;;;;;;;;;10030701;29;20082;-58
2021/12/27 11:40:19;;;;;;;73.05;46.58;;;;;;;;;;9994573;29;20077;-58
2021/12/27 11:45:36;;;;;;;68.15;32.13;;;;;;;;;;9987305;29;20502;-58
2021/12/27 11:51:08;;;;;;;51.92;29.50;;;;;;;;;;9986590;29;20071;-58
2021/12/27 11:56:09;;;;;;;88.03;41.20;;;;;;;;;;9988679;29;20078;-58
2021/12/27 12:01:29;;;;;;;66.57;30.00;;;;;;;;;;9988881;29;20076;-57
2021/12/27 12:06:38;;;;;;;55.63;24.85;;;;;;;;;;9998620;29;20071;-58
2021/12/27 12:11:37;;;;;;;79.38;33.35;;;;;;;;;;9985634;29;20485;-58
2021/12/27 12:16:47;;;;;;;43.95;21.40;;;;;;;;;;9987759;29;20465;-57
2021/12/27 12:21:48;;;;;;;100.65;24.05;;;;;;;;;;9983520;29;20544;-58
2021/12/27 12:26:47;;;;;;;41.45;21.85;;;;;;;;;;9986768;29;20095;-58
2021/12/27 12:32:08;;;;;;;101.80;23.98;;;;;;;;;;9989889;29;20076;-59
2021/12/27 12:37:08;;;;;;;59.75;26.25;;;;;;;;;;9998037;29;20075;-58
2021/12/27 12:42:07;;;;;;;54.40;23.00;;;;;;;;;;10007688;29;20122;-56
2021/12/27 12:47:07;;;;;;;82.65;25.02;;;;;;;;;;10022245;29;20071;-58
2021/12/27 12:52:08;;;;;;;157.30;38.08;;;;;;;;;;10018186;29;20084;-57
2021/12/27 12:57:08;;;;;;;48.95;23.30;;;;;;;;;;9982735;29;20090;-58
2021/12/27 13:02:08;;;;;;;74.47;30.02;;;;;;;;;;9989644;29;20138;-58
2021/12/27 13:07:07;;;;;;;104.15;36.80;;;;;;;;;;9985069;29;20079;-58
2021/12/27 13:12:06;;;;;;;124.55;52.03;;;;;;;;;;9986370;29;20068;-58
2021/12/27 13:17:12;;;;;;;96.90;35.33;;;;;;;;;;9985855;29;20064;-59
2021/12/27 13:22:10;;;;;;;129.77;37.30;;;;;;;;;;9994319;29;20060;-58
2021/12/27 13:27:09;;;;;;;110.38;44.67;;;;;;;;;;9986376;29;20067;-58
2021/12/27 13:32:07;;;;;;;103.00;47.30;;;;;;;;;;9984086;29;20079;-58
2021/12/27 13:37:07;;;;;;;115.22;50.85;;;;;;;;;;9984514;29;20084;-59
2021/12/27 13:42:07;;;;;;;102.00;33.17;;;;;;;;;;9982158;29;20068;-59
2021/12/27 13:47:07;;;;;;;61.08;29.70;;;;;;;;;;9984031;29;20059;-58
2021/12/27 13:52:06;;;;;;;104.38;40.83;;;;;;;;;;9983572;29;20188;-58
2021/12/27 13:57:06;;;;;;;113.70;44.00;;;;;;;;;;9981343;29;20103;-58
2021/12/27 14:02:05;;;;;;;167.15;40.17;;;;;;;;;;10005979;29;20604;-59
2021/12/27 14:07:06;;;;;;;112.00;47.40;;;;;;;;;;10020269;29;20082;-58
2021/12/27 14:12:06;;;;;;;87.47;34.30;;;;;;;;;;10016192;29;20087;-59
2021/12/27 14:17:09;;;;;;;75.53;34.92;;;;;;;;;;9980567;29;20455;-59
2021/12/27 14:22:14;;;;;;;77.90;38.83;;;;;;;;;;10006227;29;20475;-59
2021/12/27 14:27:22;;;;;;;143.57;40.58;;;;;;;;;;10020551;29;20509;-59
2021/12/27 14:32:20;;;;;;;73.32;34.42;;;;;;;;;;10017314;29;20530;-59
2021/12/27 14:37:19;;;;;;;113.20;40.83;;;;;;;;;;9983397;29;20084;-58
2021/12/27 14:42:20;;;;;;;102.07;35.67;;;;;;;;;;10019960;29;20086;-59
2021/12/27 14:47:21;;;;;;;99.40;46.15;;;;;;;;;;10013808;29;20079;-59
2021/12/27 14:52:19;;;;;;;138.02;39.65;;;;;;;;;;10024038;29;20071;-59
2021/12/27 14:57:33;;;;;;;86.63;48.25;;;;;;;;;;10026876;29;20071;-59
2021/12/27 15:02:33;;;;;;;107.45;57.78;;;;;;;;;;10016802;29;20478;-58
2021/12/27 15:07:32;;;;;;;96.18;32.80;;;;;;;;;;9988499;29;20071;-59
2021/12/27 15:12:30;;;;;;;114.35;42.45;;;;;;;;;;9990765;29;20084;-57
2021/12/27 15:17:29;;;;;;;111.18;37.75;;;;;;;;;;10001120;29;20068;-59
2021/12/27 15:22:28;;;;;;;96.07;39.05;;;;;;;;;;9990407;29;20087;-58
2021/12/27 15:27:27;;;;;;;94.05;41.85;;;;;;;;;;10001526;29;20088;-58
2021/12/27 15:32:26;;;;;;;79.88;36.20;;;;;;;;;;9996878;29;20082;-55
2021/12/27 15:37:24;;;;;;;82.60;35.75;;;;;;;;;;10000960;29;20076;-59
2021/12/27 15:42:24;;;;;;;135.13;69.80;;;;;;;;;;9999640;29;20063;-58
2021/12/27 15:47:22;;;;;;;92.72;45.53;;;;;;;;;;10009376;29;20075;-57
2021/12/27 15:52:21;;;;;;;46.50;27.45;;;;;;;;;;10025030;29;20069;-58
2021/12/27 15:57:19;;;;;;;58.92;34.88;;;;;;;;;;10013233;29;20078;-59
2021/12/27 16:02:18;;;;;;;92.75;49.75;;;;;;;;;;10029823;29;20060;-59
2021/12/27 16:07:17;;;;;;;150.20;70.05;;;;;;;;;;9999534;29;20068;-58
2021/12/27 16:12:15;;;;;;;91.18;48.67;;;;;;;;;;9998910;29;20080;-58
2021/12/27 16:17:13;;;;;;;107.13;56.53;;;;;;;;;;9987518;29;20064;-58
2021/12/27 16:22:13;;;;;;;114.10;52.00;;;;;;;;;;9987892;29;20481;-58
2021/12/27 16:27:12;;;;;;;122.55;58.65;;;;;;;;;;9986395;29;20071;-59
2021/12/27 16:32:10;;;;;;;98.97;55.88;;;;;;;;;;9987171;29;20446;-58
2021/12/27 16:37:09;;;;;;;87.07;42.33;;;;;;;;;;9996292;29;20064;-58
2021/12/27 16:42:11;;;;;;;94.30;42.08;;;;;;;;;;10007996;29;20087;-58
2021/12/27 16:47:09;;;;;;;62.47;31.42;;;;;;;;;;10019457;29;20163;-56
2021/12/27 16:52:08;;;;;;;62.50;28.27;;;;;;;;;;10017758;29;20075;-58
2021/12/27 16:57:08;;;;;;;61.15;30.77;;;;;;;;;;10033174;29;20070;-58
2021/12/27 17:02:07;;;;;;;52.25;27.05;;;;;;;;;;10019728;29;20075;-58
2021/12/27 17:07:06;;;;;;;93.55;39.75;;;;;;;;;;10023070;29;20087;-58
2021/12/27 17:12:10;;;;;;;133.80;52.38;;;;;;;;;;9982862;29;20474;-58
2021/12/27 17:17:10;;;;;;;104.80;46.03;;;;;;;;;;10007292;29;20071;-58
2021/12/27 17:22:09;;;;;;;118.15;58.33;;;;;;;;;;10020634;29;20071;-58
2021/12/27 17:27:10;;;;;;;95.78;46.50;;;;;;;;;;9996405;29;20526;-58
2021/12/27 17:32:09;;;;;;;59.47;34.30;;;;;;;;;;10006141;29;20095;-59
2021/12/27 17:37:08;;;;;;;118.22;67.05;;;;;;;;;;10020382;29;20094;-59
2021/12/27 17:42:08;;;;;;;80.20;39.30;;;;;;;;;;9985454;29;20064;-59
2021/12/27 17:47:06;;;;;;;97.53;47.38;;;;;;;;;;10006145;29;20489;-58
2021/12/27 17:52:06;;;;;;;85.35;38.10;;;;;;;;;;10020132;29;20098;-58
2021/12/27 17:57:04;;;;;;;76.65;37.45;;;;;;;;;;10017846;29;20068;-59
2021/12/27 18:02:23;;;;;;;73.10;37.97;;;;;;;;;;9994851;29;20094;-59
2021/12/27 18:07:23;;;;;;;58.38;31.75;;;;;;;;;;9984308;29;20068;-58
2021/12/27 18:12:24;;;;;;;43.25;26.83;;;;;;;;;;9982918;29;20082;-58
2021/12/27 18:17:23;;;;;;;54.38;35.35;;;;;;;;;;9999892;29;20466;-58
2021/12/27 18:22:23;;;;;;;53.20;33.20;;;;;;;;;;10022390;29;20080;-58
2021/12/27 18:27:21;;;;;;;85.95;54.67;;;;;;;;;;10016361;29;20548;-58
2021/12/27 18:32:19;;;;;;;42.70;28.52;;;;;;;;;;9985076;29;20090;-58
2021/12/27 18:37:18;;;;;;;25.45;18.42;;;;;;;;;;10005001;29;20083;-58
2021/12/27 18:42:18;;;;;;;66.47;45.97;;;;;;;;;;10019528;29;20071;-58
2021/12/27 18:47:16;;;;;;;57.03;41.35;;;;;;;;;;9980769;29;20184;-58
2021/12/27 18:52:14;;;;;;;58.53;41.15;;;;;;;;;;9994343;29;20566;-57
2021/12/27 18:57:13;;;;;;;132.70;72.47;;;;;;;;;;9981607;29;20490;-58
2021/12/27 19:02:12;;;;;;;117.82;58.00;;;;;;;;;;9983752;29;20098;-57
2021/12/27 19:07:11;;;;;;;109.63;59.78;;;;;;;;;;9982030;29;20086;-59
2021/12/27 19:12:09;;;;;;;87.88;51.75;;;;;;;;;;9985629;29;20084;-59
2021/12/27 19:17:08;;;;;;;57.60;39.08;;;;;;;;;;10004214;29;20470;-58
2021/12/27 19:22:07;;;;;;;64.10;43.58;;;;;;;;;;10017576;29;20505;-58
2021/12/27 19:27:06;;;;;;;61.47;46.65;;;;;;;;;;10021777;29;20498;-59
2021/12/27 19:32:05;;;;;;;45.60;35.00;;;;;;;;;;9989393;29;20529;-59
2021/12/27 19:37:04;;;;;;;21.17;16.70;;;;;;;;;;10010337;29;20080;-59
2021/12/27 19:42:03;;;;;;;101.97;55.53;;;;;;;;;;10023945;29;20079;-57
2021/12/27 19:47:02;;;;;;;29.20;19.60;;;;;;;;;;10020506;29;20068;-59
2021/12/27 19:52:00;;;;;;;27.13;21.77;;;;;;;;;;9990925;29;20075;-59
2021/12/27 19:56:58;;;;;;;40.88;28.23;;;;;;;;;;9989103;29;20501;-59
2021/12/27 20:01:59;;;;;;;30.52;18.95;;;;;;;;;;9987928;29;20083;-59
2021/12/27 20:06:57;;;;;;;19.60;16.67;;;;;;;;;;10009939;29;20087;-59
2021/12/27 20:12:00;;;;;;;32.97;23.33;;;;;;;;;;10023761;29;20086;-59
2021/12/27 20:17:00;;;;;;;44.33;31.88;;;;;;;;;;9989608;29;20142;-59
2021/12/27 20:21:58;;;;;;;40.42;28.35;;;;;;;;;;9988242;29;20106;-59
2021/12/27 20:26:56;;;;;;;49.53;36.20;;;;;;;;;;9987860;29;20082;-59
2021/12/27 20:31:55;;;;;;;43.47;31.23;;;;;;;;;;9986350;29;20087;-59
2021/12/27 20:36:54;;;;;;;38.53;26.42;;;;;;;;;;9983233;29;20470;-59
2021/12/27 20:41:53;;;;;;;35.40;24.35;;;;;;;;;;10008622;29;20072;-59
2021/12/27 20:46:51;;;;;;;23.67;17.70;;;;;;;;;;9996882;29;20076;-59
2021/12/27 20:51:49;;;;;;;29.05;24.30;;;;;;;;;;9993007;29;20513;-59
2021/12/27 20:56:49;;;;;;;44.90;33.05;;;;;;;;;;9993149;29;20091;-58
2021/12/27 21:01:47;;;;;;;18.85;14.95;;;;;;;;;;9982642;29;20716;-59
2021/12/27 21:06:46;;;;;;;23.88;18.10;;;;;;;;;;9985293;29;20078;-58
2021/12/27 21:11:44;;;;;;;19.52;14.90;;;;;;;;;;9994277;29;20701;-57
2021/12/27 21:16:45;;;;;;;14.98;12.80;;;;;;;;;;9999220;29;20482;-57
2021/12/27 21:21:43;;;;;;;30.98;22.38;;;;;;;;;;9998472;29;20471;-56
2021/12/27 21:26:43;;;;;;;46.97;27.92;;;;;;;;;;9992385;29;20072;-57
2021/12/27 21:31:41;;;;;;;118.20;72.13;;;;;;;;;;9992501;29;20084;-58
2021/12/27 21:36:41;;;;;;;31.65;17.80;;;;;;;;;;9997911;29;20068;-58
2021/12/27 21:41:39;;;;;;;44.95;28.95;;;;;;;;;;9983814;29;20076;-56
2021/12/27 21:46:38;;;;;;;131.75;74.25;;;;;;;;;;9994842;29;20079;-58
2021/12/27 21:51:37;;;;;;;50.22;40.05;;;;;;;;;;9990668;29;20503;-57
2021/12/27 21:56:37;;;;;;;35.10;21.75;;;;;;;;;;9991138;29;20080;-58
2021/12/27 22:01:35;;;;;;;39.50;25.25;;;;;;;;;;9988911;29;20076;-56
2021/12/27 22:06:34;;;;;;;43.05;26.42;;;;;;;;;;9983094;29;20556;-57
2021/12/27 22:11:32;;;;;;;38.55;24.95;;;;;;;;;;9980714;29;20575;-57
2021/12/27 22:16:32;;;;;;;23.80;15.60;;;;;;;;;;9993261;29;20569;-56
2021/12/27 22:21:30;;;;;;;29.42;19.75;;;;;;;;;;9985330;29;20083;-57
2021/12/27 22:26:29;;;;;;;46.50;26.80;;;;;;;;;;9984123;29;20068;-58
2021/12/27 22:31:27;;;;;;;47.80;29.15;;;;;;;;;;10004826;29;20090;-59
2021/12/27 22:36:27;;;;;;;57.50;32.67;;;;;;;;;;10017224;29;20059;-59
2021/12/27 22:41:25;;;;;;;108.90;58.80;;;;;;;;;;9987176;29;20102;-59
2021/12/27 22:46:24;;;;;;;34.58;21.52;;;;;;;;;;9984913;29;20087;-57
2021/12/27 22:51:22;;;;;;;22.45;15.65;;;;;;;;;;9984295;29;20521;-58
2021/12/27 22:56:22;;;;;;;22.58;16.75;;;;;;;;;;9987739;29;20516;-58
2021/12/27 23:01:21;;;;;;;19.80;14.95;;;;;;;;;;9993170;29;20091;-58
2021/12/27 23:06:21;;;;;;;15.60;12.02;;;;;;;;;;9993798;29;20091;-58
2021/12/27 23:11:20;;;;;;;28.58;18.02;;;;;;;;;;10014765;29;20075;-58
2021/12/27 23:16:19;;;;;;;23.08;17.33;;;;;;;;;;10022256;29;20056;-58
2021/12/27 23:21:18;;;;;;;18.80;15.20;;;;;;;;;;10024875;29;20064;-58
2021/12/27 23:26:16;;;;;;;43.53;26.65;;;;;;;;;;9998423;29;20087;-57
2021/12/27 23:31:16;;;;;;;21.83;16.65;;;;;;;;;;9989658;29;20087;-58
2021/12/27 23:36:16;;;;;;;91.00;56.95;;;;;;;;;;10003307;29;20080;-58
2021/12/27 23:41:15;;;;;;;40.97;26.38;;;;;;;;;;9991183;29;20167;-58
2021/12/27 23:46:13;;;;;;;17.88;13.95;;;;;;;;;;9991048;29;20087;-58
2021/12/27 23:51:12;;;;;;;30.38;20.75;;;;;;;;;;9990839;29;20076;-58
2021/12/27 23:56:11;;;;;;;29.75;22.55;;;;;;;;;;9990996;29;20068;-58
